createdAt,value
2022-12-29T00:00:11.936Z,9.65
2022-12-29T00:02:45.050Z,7.80
2022-12-29T00:05:14.122Z,7.55
2022-12-29T00:07:42.727Z,7.53
2022-12-29T00:10:11.727Z,5.80
2022-12-29T00:12:57.728Z,7.70
2022-12-29T00:15:41.533Z,7.95
2022-12-29T00:18:12.020Z,7.35
2022-12-29T00:20:58.886Z,8.05
2022-12-29T00:23:45.526Z,5.93
2022-12-29T00:26:34.155Z,6.57
2022-12-29T00:29:20.333Z,6.95
2022-12-29T00:32:08.203Z,5.88
2022-12-29T00:34:55.837Z,5.75
2022-12-29T00:37:45.942Z,6.45
2022-12-29T00:40:38.583Z,7.97
2022-12-29T00:43:25.104Z,7.18
2022-12-29T00:45:54.073Z,6.75
2022-12-29T00:48:36.836Z,6.07
2022-12-29T00:51:07.538Z,5.22
2022-12-29T00:53:36.879Z,6.65
2022-12-29T00:56:06.254Z,6.13
2022-12-29T00:58:36.142Z,6.70
2022-12-29T01:01:05.528Z,6.22
2022-12-29T01:03:35.495Z,5.70
2022-12-29T01:06:07.343Z,4.13
2022-12-29T01:08:36.852Z,5.70
2022-12-29T01:11:06.160Z,5.53
2022-12-29T01:13:36.180Z,3.90
2022-12-29T01:16:05.921Z,4.50
2022-12-29T01:18:35.804Z,4.23
2022-12-29T01:21:07.643Z,6.07
2022-12-29T01:23:36.587Z,4.10
2022-12-29T01:26:11.198Z,5.78
2022-12-29T01:28:41.229Z,5.78
2022-12-29T01:31:10.801Z,5.28
2022-12-29T01:33:39.930Z,5.37
2022-12-29T01:36:12.106Z,5.28
2022-12-29T01:38:41.555Z,4.85
2022-12-29T01:41:12.710Z,5.57
2022-12-29T01:43:43.590Z,4.55
2022-12-29T01:46:21.888Z,3.88
2022-12-29T01:48:51.886Z,4.93
2022-12-29T01:51:24.034Z,5.55
2022-12-29T01:53:53.240Z,5.72
2022-12-29T01:56:22.944Z,4.95
2022-12-29T01:58:56.721Z,6.60
2022-12-29T02:01:25.848Z,3.92
2022-12-29T02:03:54.979Z,5.47
2022-12-29T02:06:28.133Z,4.25
2022-12-29T02:08:59.086Z,5.13
2022-12-29T02:11:29.289Z,5.50
2022-12-29T02:13:59.361Z,4.75
2022-12-29T02:16:42.513Z,4.75
2022-12-29T02:19:47.491Z,3.83
2022-12-29T02:22:24.792Z,6.53
2022-12-29T02:25:21.681Z,6.35
2022-12-29T02:27:56.819Z,5.82
2022-12-29T02:30:54.953Z,4.80
2022-12-29T02:33:36.737Z,5.50
2022-12-29T02:36:10.181Z,4.15
2022-12-29T02:38:51.810Z,2.83
2022-12-29T02:41:24.157Z,4.68
2022-12-29T02:43:58.105Z,4.75
2022-12-29T02:46:34.370Z,5.53
2022-12-29T02:49:08.606Z,4.75
2022-12-29T02:51:41.775Z,4.13
2022-12-29T02:54:28.070Z,5.35
2022-12-29T02:56:57.538Z,4.88
2022-12-29T02:59:26.914Z,4.47
2022-12-29T03:02:19.235Z,4.80
2022-12-29T03:05:17.576Z,5.30
2022-12-29T03:07:53.028Z,5.20
2022-12-29T03:10:35.645Z,4.03
2022-12-29T03:13:27.256Z,5.10
2022-12-29T03:16:04.485Z,5.38
2022-12-29T03:18:42.212Z,4.18
2022-12-29T03:21:15.100Z,4.43
2022-12-29T03:23:48.701Z,4.57
2022-12-29T03:26:20.509Z,3.78
2022-12-29T03:28:57.750Z,5.60
2022-12-29T03:31:29.188Z,5.30
2022-12-29T03:34:00.950Z,6.28
2022-12-29T03:36:33.392Z,6.22
2022-12-29T03:39:05.150Z,4.65
2022-12-29T03:41:35.960Z,4.40
2022-12-29T03:44:09.381Z,4.95
2022-12-29T03:46:38.128Z,4.43
2022-12-29T03:49:09.474Z,3.92
2022-12-29T03:51:38.641Z,4.15
2022-12-29T03:54:08.475Z,5.10
2022-12-29T03:56:37.597Z,5.07
2022-12-29T03:59:06.683Z,5.40
2022-12-29T04:01:41.371Z,5.22
2022-12-29T04:04:11.902Z,4.43
2022-12-29T04:06:41.141Z,6.07
2022-12-29T04:09:12.392Z,6.45
2022-12-29T04:11:46.604Z,6.05
2022-12-29T04:14:16.217Z,4.27
2022-12-29T04:16:47.879Z,3.08
2022-12-29T04:19:19.484Z,5.70
2022-12-29T04:21:50.155Z,6.75
2022-12-29T04:24:20.419Z,4.57
2022-12-29T04:26:52.510Z,6.75
2022-12-29T04:29:44.544Z,4.35
2022-12-29T04:32:33.896Z,5.75
2022-12-29T04:35:05.419Z,6.28
2022-12-29T04:37:34.265Z,5.40
2022-12-29T04:40:03.353Z,7.07
2022-12-29T04:42:33.065Z,6.55
2022-12-29T04:45:02.547Z,5.00
2022-12-29T04:47:39.586Z,6.40
2022-12-29T04:50:33.748Z,5.63
2022-12-29T04:53:10.656Z,5.07
2022-12-29T04:55:39.651Z,7.03
2022-12-29T04:58:09.307Z,4.53
2022-12-29T05:00:38.690Z,6.90
2022-12-29T05:03:08.790Z,4.93
2022-12-29T05:05:43.610Z,5.07
2022-12-29T05:08:12.797Z,7.20
2022-12-29T05:10:47.731Z,5.75
2022-12-29T05:13:17.894Z,6.07
2022-12-29T05:15:50.869Z,8.55
2022-12-29T05:18:20.268Z,5.60
2022-12-29T05:20:50.919Z,6.97
2022-12-29T05:23:22.204Z,7.72
2022-12-29T05:26:02.073Z,8.18
2022-12-29T05:28:36.410Z,4.70
2022-12-29T05:31:19.972Z,9.10
2022-12-29T05:33:50.467Z,7.88
2022-12-29T05:36:21.685Z,7.85
2022-12-29T05:38:55.074Z,7.82
2022-12-29T05:41:24.131Z,9.23
2022-12-29T05:43:52.824Z,6.75
2022-12-29T05:46:57.270Z,6.40
2022-12-29T05:49:43.809Z,7.95
2022-12-29T05:52:32.611Z,8.75
2022-12-29T05:55:01.913Z,8.82
2022-12-29T05:57:33.352Z,6.22
2022-12-29T06:00:11.257Z,5.47
2022-12-29T06:02:49.430Z,8.90
2022-12-29T06:05:19.984Z,5.72
2022-12-29T06:07:50.225Z,7.32
2022-12-29T06:10:20.342Z,5.95
2022-12-29T06:12:57.824Z,7.72
2022-12-29T06:15:27.062Z,6.72
2022-12-29T06:17:57.138Z,5.32
2022-12-29T06:20:28.609Z,5.68
2022-12-29T06:22:58.870Z,6.65
2022-12-29T06:25:27.980Z,7.07
2022-12-29T06:27:57.271Z,4.68
2022-12-29T06:30:26.577Z,7.60
2022-12-29T06:32:55.937Z,6.60
2022-12-29T06:35:26.585Z,7.70
2022-12-29T06:37:55.429Z,7.28
2022-12-29T06:40:25.962Z,7.85
2022-12-29T06:43:18.014Z,6.57
2022-12-29T06:46:07.475Z,5.18
2022-12-29T06:48:36.807Z,5.03
2022-12-29T06:51:06.157Z,3.20
2022-12-29T06:53:35.305Z,4.87
2022-12-29T06:56:06.355Z,4.82
2022-12-29T06:58:36.469Z,5.57
2022-12-29T07:01:06.259Z,6.05
2022-12-29T07:03:35.488Z,5.80
2022-12-29T07:06:04.871Z,5.22
2022-12-29T07:08:34.074Z,4.80
2022-12-29T07:11:03.206Z,3.83
2022-12-29T07:13:33.507Z,3.30
2022-12-29T07:16:06.923Z,3.95
2022-12-29T07:18:36.908Z,4.75
2022-12-29T07:21:06.407Z,5.38
2022-12-29T07:23:35.793Z,5.73
2022-12-29T07:26:06.108Z,5.72
2022-12-29T07:28:36.946Z,3.67
2022-12-29T07:31:06.352Z,5.32
2022-12-29T07:33:35.864Z,4.47
2022-12-29T07:36:05.055Z,5.47
2022-12-29T07:38:34.248Z,4.97
2022-12-29T07:41:03.468Z,4.80
2022-12-29T07:43:32.256Z,4.78
2022-12-29T07:46:56.437Z,3.67
2022-12-29T07:49:19.149Z,3.35
2022-12-29T07:51:48.372Z,4.17
2022-12-29T07:54:19.791Z,6.07
2022-12-29T07:56:49.340Z,5.30
2022-12-29T07:59:18.511Z,5.53
2022-12-29T08:01:48.857Z,4.13
2022-12-29T08:04:18.031Z,5.50
2022-12-29T08:06:47.701Z,5.10
2022-12-29T08:09:22.332Z,5.47
2022-12-29T08:11:53.467Z,5.38
2022-12-29T08:14:22.460Z,4.47
2022-12-29T08:16:53.344Z,5.68
2022-12-29T08:19:22.509Z,3.95
2022-12-29T08:21:53.015Z,5.70
2022-12-29T08:24:22.327Z,5.47
2022-12-29T08:26:51.461Z,4.32
2022-12-29T08:29:20.645Z,5.25
2022-12-29T08:31:49.377Z,2.95
2022-12-29T08:34:19.871Z,7.53
2022-12-29T08:36:48.921Z,5.35
2022-12-29T08:39:18.379Z,5.50
2022-12-29T08:41:47.509Z,4.90
2022-12-29T08:44:16.666Z,5.65
2022-12-29T08:46:45.354Z,4.03
2022-12-29T08:49:14.595Z,4.55
2022-12-29T08:51:45.107Z,4.57
2022-12-29T08:54:14.917Z,4.30
2022-12-29T08:56:44.010Z,5.57
2022-12-29T08:59:13.156Z,4.93
2022-12-29T09:01:43.079Z,4.18
2022-12-29T09:04:15.648Z,4.90
2022-12-29T09:06:48.096Z,4.93
2022-12-29T09:09:18.205Z,4.15
2022-12-29T09:11:47.616Z,4.20
2022-12-29T09:14:17.350Z,4.83
2022-12-29T09:17:03.404Z,3.00
2022-12-29T09:19:34.236Z,5.78
2022-12-29T09:22:05.222Z,3.60
2022-12-29T09:24:34.497Z,4.60
2022-12-29T09:27:03.565Z,4.30
2022-12-29T09:29:32.672Z,3.63
2022-12-29T09:32:01.774Z,3.65
2022-12-29T09:34:30.518Z,3.97
2022-12-29T09:36:59.740Z,4.35
2022-12-29T09:39:30.547Z,3.92
2022-12-29T09:42:04.386Z,4.45
2022-12-29T09:44:46.045Z,4.53
2022-12-29T09:47:17.379Z,6.13
2022-12-29T09:49:47.703Z,4.45
2022-12-29T09:52:19.716Z,3.85
2022-12-29T09:55:00.494Z,4.20
2022-12-29T09:57:36.182Z,3.85
2022-12-29T10:00:09.392Z,4.35
2022-12-29T10:02:47.001Z,3.38
2022-12-29T10:05:23.219Z,3.78
2022-12-29T10:07:58.171Z,5.50
2022-12-29T10:10:36.938Z,6.30
2022-12-29T10:13:27.701Z,3.42
2022-12-29T10:16:03.906Z,4.88
2022-12-29T10:18:56.184Z,4.03
2022-12-29T10:21:32.374Z,4.28
2022-12-29T10:24:01.897Z,3.83
2022-12-29T10:26:35.982Z,3.67
2022-12-29T10:29:06.860Z,3.97
2022-12-29T10:34:12.896Z,5.32
2022-12-29T10:36:44.987Z,3.85
2022-12-29T10:39:19.288Z,4.35
2022-12-29T10:41:53.222Z,5.25
2022-12-29T10:44:22.713Z,5.25
2022-12-29T10:46:57.124Z,4.28
2022-12-29T10:49:27.884Z,5.05
2022-12-29T10:52:00.797Z,4.15
2022-12-29T10:54:35.050Z,4.78
2022-12-29T10:57:08.868Z,4.20
2022-12-29T10:59:39.248Z,4.53
2022-12-29T11:02:26.885Z,3.83
2022-12-29T11:05:03.208Z,4.32
2022-12-29T11:07:34.716Z,3.25
2022-12-29T11:10:21.817Z,6.18
2022-12-29T11:13:03.463Z,4.68
2022-12-29T11:15:41.754Z,4.72
2022-12-29T11:18:22.857Z,5.53
2022-12-29T11:20:53.243Z,4.28
2022-12-29T11:23:29.333Z,4.07
2022-12-29T11:26:23.380Z,5.95
2022-12-29T11:29:25.490Z,4.53
2022-12-29T11:31:56.259Z,5.40
2022-12-29T11:34:27.910Z,3.92
2022-12-29T11:37:01.758Z,6.15
2022-12-29T11:39:41.627Z,4.53
2022-12-29T11:42:17.621Z,6.07
2022-12-29T11:44:50.208Z,4.20
2022-12-29T11:47:29.273Z,3.97
2022-12-29T11:50:00.401Z,5.82
2022-12-29T11:52:32.261Z,5.25
2022-12-29T11:55:02.175Z,5.28
2022-12-29T11:57:31.533Z,3.95
2022-12-29T12:00:03.182Z,4.60
2022-12-29T12:02:48.676Z,5.35
2022-12-29T12:05:25.241Z,5.75
2022-12-29T12:07:59.144Z,5.80
2022-12-29T12:10:32.225Z,3.95
2022-12-29T12:13:10.508Z,5.15
2022-12-29T12:15:46.612Z,4.38
2022-12-29T12:18:31.304Z,4.75
2022-12-29T12:21:07.918Z,4.55
2022-12-29T12:23:44.189Z,4.38
2022-12-29T12:26:15.055Z,5.22
2022-12-29T12:28:51.348Z,4.93
2022-12-29T12:31:37.724Z,5.57
2022-12-29T12:34:09.863Z,5.63
2022-12-29T12:37:00.136Z,5.07
2022-12-29T12:39:29.966Z,4.53
2022-12-29T12:42:08.642Z,5.35
2022-12-29T12:44:43.393Z,6.13
2022-12-29T12:47:37.240Z,6.40
2022-12-29T12:50:21.850Z,4.40
2022-12-29T12:53:09.795Z,5.35
2022-12-29T12:55:48.946Z,4.85
2022-12-29T12:58:25.748Z,4.35
2022-12-29T13:01:04.777Z,6.68
2022-12-29T13:03:47.527Z,5.45
2022-12-29T13:06:23.305Z,3.47
2022-12-29T13:09:05.879Z,4.00
2022-12-29T13:11:42.537Z,6.18
2022-12-29T13:14:27.255Z,5.63
2022-12-29T13:17:03.308Z,4.85
2022-12-29T13:19:37.169Z,5.78
2022-12-29T13:22:12.106Z,5.78
2022-12-29T13:24:50.446Z,5.60
2022-12-29T13:27:24.989Z,5.88
2022-12-29T13:30:01.275Z,5.45
2022-12-29T13:32:40.015Z,4.93
2022-12-29T13:35:22.813Z,3.90
2022-12-29T13:37:55.556Z,5.45
2022-12-29T13:40:27.621Z,4.47
2022-12-29T13:42:57.808Z,4.13
2022-12-29T13:45:27.762Z,5.55
2022-12-29T13:50:31.491Z,5.53
2022-12-29T13:53:09.370Z,5.63
2022-12-29T13:55:46.959Z,5.65
2022-12-29T13:58:24.514Z,4.53
2022-12-29T14:01:01.137Z,6.00
2022-12-29T14:03:51.818Z,5.32
2022-12-29T14:06:32.472Z,4.80
2022-12-29T14:09:04.917Z,5.70
2022-12-29T14:11:35.734Z,6.43
2022-12-29T14:14:14.785Z,4.25
2022-12-29T14:16:44.086Z,6.25
2022-12-29T14:19:16.492Z,4.93
2022-12-29T14:21:55.335Z,4.15
2022-12-29T14:24:47.626Z,5.40
2022-12-29T14:27:54.157Z,5.60
2022-12-29T14:31:02.611Z,5.30
2022-12-29T14:33:32.928Z,4.53
2022-12-29T14:38:48.919Z,5.57
2022-12-29T14:41:29.079Z,5.53
2022-12-29T14:44:02.459Z,5.43
2022-12-29T14:46:47.534Z,6.32
2022-12-29T14:49:20.825Z,4.70
2022-12-29T14:51:50.158Z,4.50
2022-12-29T14:54:50.356Z,5.18
2022-12-29T14:57:25.642Z,5.07
2022-12-29T14:59:56.660Z,7.25
2022-12-29T15:02:29.370Z,7.05
2022-12-29T15:05:02.378Z,5.65
2022-12-29T15:07:31.916Z,7.80
2022-12-29T15:10:08.013Z,5.33
2022-12-29T15:12:40.619Z,5.22
2022-12-29T15:15:21.748Z,7.65
2022-12-29T15:17:50.883Z,7.22
2022-12-29T15:20:27.685Z,7.10
2022-12-29T15:22:58.931Z,6.20
2022-12-29T15:25:29.500Z,8.05
2022-12-29T15:28:01.936Z,8.13
2022-12-29T15:30:32.125Z,5.85
2022-12-29T15:33:01.736Z,4.15
2022-12-29T15:35:33.521Z,6.25
2022-12-29T15:38:04.361Z,6.20
2022-12-29T15:40:35.759Z,7.82
2022-12-29T15:43:46.560Z,5.18
2022-12-29T15:46:16.642Z,6.88
2022-12-29T15:48:45.900Z,5.73
2022-12-29T15:51:24.147Z,6.53
2022-12-29T15:53:54.048Z,6.10
2022-12-29T15:56:24.632Z,7.88
2022-12-29T16:01:31.150Z,6.22
2022-12-29T16:04:01.232Z,5.55
2022-12-29T16:06:34.570Z,6.95
2022-12-29T16:09:05.987Z,6.20
2022-12-29T16:11:38.825Z,8.10
2022-12-29T16:14:11.221Z,6.93
2022-12-29T16:16:42.147Z,6.05
2022-12-29T16:19:16.119Z,5.30
2022-12-29T16:21:45.696Z,7.28
2022-12-29T16:24:16.789Z,6.77
2022-12-29T16:26:51.037Z,5.90
2022-12-29T16:29:22.722Z,6.57
2022-12-29T16:31:54.312Z,7.00
2022-12-29T16:34:26.567Z,6.55
2022-12-29T16:36:57.565Z,5.90
2022-12-29T16:39:29.962Z,5.68
2022-12-29T16:42:01.060Z,6.38
2022-12-29T16:44:31.692Z,5.22
2022-12-29T16:47:19.784Z,5.55
2022-12-29T16:49:53.319Z,6.15
2022-12-29T16:52:25.211Z,6.70
2022-12-29T16:54:56.841Z,6.90
2022-12-29T16:57:32.228Z,4.93
2022-12-29T17:00:03.044Z,7.53
2022-12-29T17:02:33.581Z,7.72
2022-12-29T17:05:03.035Z,6.38
2022-12-29T17:07:33.291Z,4.20
2022-12-29T17:10:02.661Z,5.47
2022-12-29T17:12:36.119Z,6.88
2022-12-29T17:15:11.041Z,6.68
2022-12-29T17:17:42.756Z,8.18
2022-12-29T17:20:18.079Z,7.43
2022-12-29T17:22:47.072Z,8.38
2022-12-29T17:25:18.516Z,6.70
2022-12-29T17:27:50.608Z,5.70
2022-12-29T17:30:27.137Z,7.93
2022-12-29T17:33:02.331Z,7.20
2022-12-29T17:35:31.530Z,4.53
2022-12-29T17:38:01.003Z,5.05
2022-12-29T17:40:30.952Z,9.15
2022-12-29T17:43:01.885Z,8.75
2022-12-29T17:45:32.173Z,6.68
2022-12-29T17:50:32.661Z,7.15
2022-12-29T17:53:04.723Z,8.43
2022-12-29T17:55:38.302Z,7.07
2022-12-29T17:58:19.147Z,7.20
2022-12-29T18:03:18.288Z,7.28
2022-12-29T18:05:48.093Z,7.75
2022-12-29T18:08:17.120Z,8.30
2022-12-29T18:10:45.953Z,6.90
2022-12-29T18:13:21.904Z,6.43
2022-12-29T18:15:52.531Z,7.35
2022-12-29T18:18:23.851Z,9.73
2022-12-29T18:20:55.366Z,6.43
2022-12-29T18:23:26.574Z,7.63
2022-12-29T18:25:57.062Z,8.15
2022-12-29T18:28:27.899Z,8.13
2022-12-29T18:31:01.197Z,8.13
2022-12-29T18:33:31.412Z,9.10
2022-12-29T18:36:02.113Z,6.95
2022-12-29T18:38:31.834Z,7.57
2022-12-29T18:41:01.867Z,7.25
2022-12-29T18:43:32.173Z,6.28
2022-12-29T18:46:02.549Z,6.57
2022-12-29T18:48:31.907Z,7.63
2022-12-29T18:51:01.221Z,9.82
2022-12-29T18:53:30.382Z,9.65
2022-12-29T18:55:59.341Z,8.13
2022-12-29T18:58:33.970Z,10.45
2022-12-29T19:01:05.148Z,7.47
2022-12-29T19:03:34.583Z,9.52
2022-12-29T19:06:03.863Z,6.75
2022-12-29T19:08:33.159Z,10.25
2022-12-29T19:11:02.357Z,11.40
2022-12-29T19:13:31.531Z,8.13
2022-12-29T19:16:00.851Z,10.80
2022-12-29T19:18:43.706Z,10.20
2022-12-29T19:21:14.449Z,10.05
2022-12-29T19:23:43.712Z,10.10
2022-12-29T19:26:28.896Z,10.68
2022-12-29T19:28:57.720Z,10.18
2022-12-29T19:31:26.874Z,9.55
2022-12-29T19:33:57.805Z,9.52
2022-12-29T19:36:26.941Z,10.57
2022-12-29T19:38:56.205Z,9.77
2022-12-29T19:41:25.770Z,8.95
2022-12-29T19:43:54.739Z,9.35
2022-12-29T19:46:25.615Z,8.90
2022-12-29T19:48:55.112Z,9.05
2022-12-29T19:51:25.919Z,10.35
2022-12-29T19:53:55.463Z,9.77
2022-12-29T19:56:24.573Z,10.17
2022-12-29T19:58:53.204Z,7.63
2022-12-29T20:01:23.567Z,9.10
2022-12-29T20:03:53.373Z,10.43
2022-12-29T20:06:22.423Z,11.20
2022-12-29T20:08:52.954Z,9.80
2022-12-29T20:11:22.158Z,9.02
2022-12-29T20:13:50.916Z,9.15
2022-12-29T20:16:20.877Z,8.57
2022-12-29T20:18:50.943Z,9.43
2022-12-29T20:21:21.900Z,9.70
2022-12-29T20:23:52.994Z,8.68
2022-12-29T20:26:23.501Z,9.75
2022-12-29T20:28:52.556Z,9.48
2022-12-29T20:31:23.402Z,8.68
2022-12-29T20:33:52.683Z,9.30
2022-12-29T20:36:24.967Z,8.85
2022-12-29T20:38:57.040Z,8.35
2022-12-29T20:41:26.261Z,10.20
2022-12-29T20:43:55.359Z,7.82
2022-12-29T20:46:33.734Z,9.23
2022-12-29T20:49:04.419Z,9.63
2022-12-29T20:52:03.914Z,6.97
2022-12-29T20:54:24.712Z,9.48
2022-12-29T20:56:53.832Z,9.43
2022-12-29T20:59:27.778Z,9.68
2022-12-29T21:01:57.858Z,9.98
2022-12-29T21:04:27.183Z,7.97
2022-12-29T21:06:56.659Z,9.73
2022-12-29T21:09:27.159Z,10.07
2022-12-29T21:11:56.242Z,9.48
2022-12-29T21:14:25.325Z,10.38
2022-12-29T21:16:54.317Z,10.70
2022-12-29T21:19:23.448Z,9.63
2022-12-29T21:21:52.469Z,9.60
2022-12-29T21:24:21.502Z,10.15
2022-12-29T21:26:52.047Z,11.65
2022-12-29T21:29:21.193Z,10.48
2022-12-29T21:31:49.870Z,11.23
2022-12-29T21:34:18.894Z,9.88
2022-12-29T21:36:47.988Z,10.93
2022-12-29T21:39:18.214Z,10.88
2022-12-29T21:41:47.666Z,9.95
2022-12-29T21:44:35.815Z,8.85
2022-12-29T21:47:04.548Z,10.70
2022-12-29T21:49:33.605Z,9.93
2022-12-29T21:52:02.579Z,10.07
2022-12-29T21:54:49.480Z,10.43
2022-12-29T21:57:34.063Z,9.68
2022-12-29T22:00:22.557Z,9.63
2022-12-29T22:03:12.922Z,8.55
2022-12-29T22:06:04.815Z,9.88
2022-12-29T22:08:51.344Z,8.32
2022-12-29T22:11:37.548Z,8.68
2022-12-29T22:14:06.570Z,10.07
2022-12-29T22:16:37.132Z,9.25
2022-12-29T22:19:07.969Z,10.02
2022-12-29T22:21:36.977Z,9.68
2022-12-29T22:24:06.861Z,9.23
2022-12-29T22:26:36.015Z,8.48
2022-12-29T22:29:05.180Z,8.68
2022-12-29T22:31:34.040Z,9.20
2022-12-29T22:34:05.755Z,10.15
2022-12-29T22:36:35.077Z,7.78
2022-12-29T22:39:04.123Z,9.27
2022-12-29T22:41:33.211Z,9.85
2022-12-29T22:44:02.171Z,8.60
2022-12-29T22:46:30.869Z,9.50
2022-12-29T22:48:59.947Z,8.57
2022-12-29T22:51:30.415Z,9.68
2022-12-29T22:56:29.740Z,8.65
2022-12-29T22:58:59.877Z,8.70
2022-12-29T23:01:28.997Z,9.13
2022-12-29T23:04:35.172Z,9.95
2022-12-29T23:06:49.109Z,9.35
2022-12-29T23:09:20.472Z,8.07
2022-12-29T23:11:49.730Z,9.50
2022-12-29T23:14:19.511Z,8.95
2022-12-29T23:16:48.199Z,9.07
2022-12-29T23:19:17.526Z,9.40
2022-12-29T23:21:46.865Z,8.52
2022-12-29T23:24:17.385Z,7.78
2022-12-29T23:26:47.990Z,8.60
2022-12-29T23:29:19.647Z,8.70
2022-12-29T23:31:48.673Z,9.05
2022-12-29T23:34:18.481Z,8.40
2022-12-29T23:36:47.547Z,9.57
2022-12-29T23:39:23.378Z,9.00
2022-12-29T23:41:52.568Z,8.98
2022-12-29T23:44:21.714Z,9.35
2022-12-29T23:46:50.496Z,9.18
2022-12-29T23:49:19.695Z,9.60
2022-12-29T23:51:48.708Z,9.60
2022-12-29T23:54:17.694Z,10.27
2022-12-29T23:56:48.155Z,8.90
